createdAt,value
2019-06-01T00:00:13.205Z,52.40
2019-06-01T00:01:17.823Z,51.80
2019-06-01T00:02:22.622Z,51.80
2019-06-01T00:03:26.737Z,53.20
2019-06-01T00:04:29.338Z,53.20
2019-06-01T00:05:32.086Z,47.60
2019-06-01T00:06:34.969Z,53.00
2019-06-01T00:07:38.660Z,51.40
2019-06-01T00:08:41.459Z,52.20
2019-06-01T00:09:43.293Z,50.80
2019-06-01T00:10:45.791Z,53.20
2019-06-01T00:11:49.661Z,54.60
2019-06-01T00:12:51.498Z,51.00
2019-06-01T00:13:55.182Z,52.40
2019-06-01T00:14:58.334Z,53.60
2019-06-01T00:16:00.340Z,51.20
2019-06-01T00:17:03.422Z,51.60
2019-06-01T00:18:06.337Z,50.00
2019-06-01T00:19:08.762Z,49.20
2019-06-01T00:20:12.599Z,51.60
2019-06-01T00:21:15.123Z,49.00
2019-06-01T00:22:17.348Z,43.80
2019-06-01T00:23:20.174Z,53.20
2019-06-01T00:24:23.233Z,55.60
2019-06-01T00:25:24.912Z,56.80
2019-06-01T00:26:27.276Z,51.60
2019-06-01T00:27:29.824Z,52.40
2019-06-01T00:28:32.389Z,50.00
2019-06-01T00:29:35.177Z,54.60
2019-06-01T00:30:38.048Z,51.20
2019-06-01T00:31:41.209Z,56.40
2019-06-01T00:32:43.684Z,53.20
2019-06-01T00:33:47.556Z,53.60
2019-06-01T00:34:51.923Z,51.80
2019-06-01T00:35:54.666Z,50.20
2019-06-01T00:36:57.048Z,50.40
2019-06-01T00:38:00.084Z,53.20
2019-06-01T00:39:05.713Z,51.00
2019-06-01T00:40:09.440Z,56.00
2019-06-01T00:41:14.414Z,55.40
2019-06-01T00:42:17.867Z,48.00
2019-06-01T00:43:21.588Z,51.60
2019-06-01T00:44:24.513Z,52.00
2019-06-01T00:45:26.925Z,54.40
2019-06-01T00:46:29.284Z,52.40
2019-06-01T00:47:32.005Z,51.40
2019-06-01T00:48:34.066Z,50.80
2019-06-01T00:49:36.445Z,49.80
2019-06-01T00:50:40.246Z,49.20
2019-06-01T00:51:42.854Z,51.20
2019-06-01T00:52:45.251Z,51.80
2019-06-01T00:53:49.160Z,49.20
2019-06-01T00:54:53.526Z,49.80
2019-06-01T00:55:57.800Z,55.40
2019-06-01T00:57:00.569Z,55.20
2019-06-01T00:58:03.999Z,53.80
2019-06-01T00:59:06.841Z,56.00
2019-06-01T01:00:09.898Z,55.60
2019-06-01T01:01:12.531Z,53.60
2019-06-01T01:02:16.421Z,51.40
2019-06-01T01:03:18.693Z,51.00
2019-06-01T01:04:21.480Z,51.00
2019-06-01T01:05:24.731Z,50.60
2019-06-01T01:06:27.357Z,55.00
2019-06-01T01:07:29.888Z,55.20
2019-06-01T01:08:32.535Z,53.00
2019-06-01T01:09:35.315Z,56.60
2019-06-01T01:10:38.105Z,64.40
2019-06-01T01:11:40.743Z,55.80
2019-06-01T01:13:03.080Z,56.40
2019-06-01T01:14:06.863Z,53.00
2019-06-01T01:15:09.570Z,56.60
2019-06-01T01:16:11.605Z,53.80
2019-06-01T01:17:14.239Z,55.40
2019-06-01T01:18:16.661Z,58.80
2019-06-01T01:19:19.671Z,56.00
2019-06-01T01:20:22.694Z,53.60
2019-06-01T01:21:24.452Z,55.60
2019-06-01T01:22:26.229Z,56.60
2019-06-01T01:23:28.729Z,71.00
2019-06-01T01:24:33.777Z,54.20
2019-06-01T01:25:37.044Z,52.00
2019-06-01T01:26:39.417Z,55.00
2019-06-01T01:27:41.143Z,57.40
2019-06-01T01:28:43.660Z,50.80
2019-06-01T01:29:46.811Z,54.00
2019-06-01T01:31:05.522Z,56.20
2019-06-01T01:31:53.846Z,56.00
2019-06-01T01:32:58.163Z,53.60
2019-06-01T01:34:00.696Z,164.60
2019-06-01T01:35:06.283Z,57.60
2019-06-01T01:36:08.751Z,56.80
2019-06-01T01:37:11.654Z,53.20
2019-06-01T01:38:15.870Z,56.00
2019-06-01T01:39:18.178Z,54.00
2019-06-01T01:40:22.372Z,56.80
2019-06-01T01:41:25.314Z,58.60
2019-06-01T01:42:27.130Z,54.80
2019-06-01T01:43:29.234Z,50.60
2019-06-01T01:44:31.964Z,57.40
2019-06-01T01:45:34.390Z,60.00
2019-06-01T01:46:36.784Z,55.20
2019-06-01T01:47:39.444Z,56.80
2019-06-01T01:48:41.300Z,53.80
2019-06-01T01:49:44.246Z,58.60
2019-06-01T01:50:46.675Z,53.60
2019-06-01T01:51:50.409Z,60.60
2019-06-01T01:52:54.707Z,58.40
2019-06-01T01:53:58.787Z,57.80
2019-06-01T01:55:01.179Z,56.40
2019-06-01T01:56:03.743Z,56.00
2019-06-01T01:57:07.248Z,53.20
2019-06-01T01:58:10.549Z,52.80
2019-06-01T01:59:13.697Z,54.40
2019-06-01T02:00:36.120Z,57.00
2019-06-01T02:01:38.222Z,55.80
2019-06-01T02:02:41.232Z,55.80
2019-06-01T02:03:43.124Z,60.40
2019-06-01T02:04:45.991Z,58.00
2019-06-01T02:05:48.549Z,55.00
2019-06-01T02:06:51.817Z,58.40
2019-06-01T02:07:54.912Z,55.80
2019-06-01T02:08:57.331Z,53.40
2019-06-01T02:10:01.937Z,54.40
2019-06-01T02:11:04.700Z,57.40
2019-06-01T02:12:06.958Z,57.00
2019-06-01T02:13:11.875Z,56.40
2019-06-01T02:14:14.519Z,51.60
2019-06-01T02:15:17.434Z,55.20
2019-06-01T02:16:20.400Z,52.40
2019-06-01T02:17:23.855Z,53.00
2019-06-01T02:18:25.949Z,52.60
2019-06-01T02:19:28.489Z,55.20
2019-06-01T02:20:31.982Z,53.00
2019-06-01T02:21:33.653Z,54.80
2019-06-01T02:22:36.441Z,52.00
2019-06-01T02:23:38.847Z,56.40
2019-06-01T02:24:40.717Z,51.80
2019-06-01T02:25:43.727Z,54.00
2019-06-01T02:26:46.261Z,56.40
2019-06-01T02:27:49.547Z,56.80
2019-06-01T02:28:53.146Z,53.60
2019-06-01T02:29:55.859Z,57.60
2019-06-01T02:30:59.968Z,56.40
2019-06-01T02:32:04.770Z,52.60
2019-06-01T02:33:08.330Z,53.60
2019-06-01T02:34:10.821Z,55.60
2019-06-01T02:35:14.558Z,52.20
2019-06-01T02:36:17.509Z,51.60
2019-06-01T02:37:19.281Z,52.20
2019-06-01T02:38:22.048Z,44.20
2019-06-01T02:39:24.814Z,42.20
2019-06-01T02:40:28.977Z,44.40
2019-06-01T02:41:31.716Z,52.80
2019-06-01T02:42:33.531Z,47.80
2019-06-01T02:43:35.429Z,45.00
2019-06-01T02:44:37.896Z,41.20
2019-06-01T02:45:40.270Z,45.00
2019-06-01T02:46:42.936Z,49.80
2019-06-01T02:47:45.940Z,56.00
2019-06-01T02:48:48.225Z,50.80
2019-06-01T02:49:51.101Z,46.00
2019-06-01T02:50:55.799Z,47.20
2019-06-01T02:51:57.593Z,48.20
2019-06-01T02:53:01.509Z,49.60
2019-06-01T02:54:04.220Z,52.00
2019-06-01T02:55:15.527Z,51.40
2019-06-01T02:56:17.894Z,50.40
2019-06-01T02:57:21.694Z,45.00
2019-06-01T02:58:23.936Z,48.00
2019-06-01T02:59:26.682Z,53.20
2019-06-01T03:01:07.051Z,54.40
2019-06-01T03:02:13.637Z,52.80
2019-06-01T03:03:15.032Z,51.80
2019-06-01T03:04:18.253Z,52.20
2019-06-01T03:05:21.388Z,56.80
2019-06-01T03:06:29.492Z,56.60
2019-06-01T03:07:33.404Z,53.20
2019-06-01T03:08:36.795Z,50.60
2019-06-01T03:09:39.302Z,55.80
2019-06-01T03:10:41.348Z,51.40
2019-06-01T03:11:45.405Z,53.00
2019-06-01T03:12:50.982Z,55.80
2019-06-01T03:13:56.308Z,49.20
2019-06-01T03:15:02.717Z,51.80
2019-06-01T03:16:08.900Z,52.00
2019-06-01T03:17:15.596Z,49.00
2019-06-01T03:18:21.760Z,53.20
2019-06-01T03:19:28.094Z,55.00
2019-06-01T03:20:31.863Z,48.60
2019-06-01T03:21:34.563Z,49.80
2019-06-01T03:22:41.061Z,55.60
2019-06-01T03:23:46.581Z,51.80
2019-06-01T03:24:51.897Z,57.80
2019-06-01T03:25:55.970Z,55.60
2019-06-01T03:27:02.942Z,54.40
2019-06-01T03:28:09.273Z,52.00
2019-06-01T03:29:15.473Z,57.20
2019-06-01T03:30:38.461Z,55.40
2019-06-01T03:31:41.691Z,56.80
2019-06-01T03:32:44.799Z,53.20
2019-06-01T03:33:49.724Z,55.00
2019-06-01T03:34:53.755Z,59.80
2019-06-01T03:35:56.413Z,54.60
2019-06-01T03:37:00.851Z,55.00
2019-06-01T03:38:04.959Z,54.20
2019-06-01T03:39:08.270Z,52.60
2019-06-01T03:40:23.149Z,51.20
2019-06-01T03:41:16.896Z,55.00
2019-06-01T03:42:20.783Z,50.40
2019-06-01T03:43:22.743Z,53.20
2019-06-01T03:44:25.483Z,51.60
2019-06-01T03:45:28.125Z,53.20
2019-06-01T03:46:30.341Z,55.20
2019-06-01T03:47:32.709Z,56.60
2019-06-01T03:48:35.639Z,53.80
2019-06-01T03:49:37.360Z,53.40
2019-06-01T03:50:40.518Z,51.60
2019-06-01T03:51:42.982Z,51.40
2019-06-01T03:52:46.331Z,51.80
2019-06-01T03:53:49.065Z,49.00
2019-06-01T03:54:50.797Z,44.00
2019-06-01T03:55:53.186Z,48.20
2019-06-01T03:56:55.521Z,48.60
2019-06-01T03:57:57.214Z,47.40
2019-06-01T03:59:00.973Z,52.80
2019-06-01T04:00:07.160Z,53.60
2019-06-01T04:01:11.289Z,47.60
2019-06-01T04:02:13.954Z,47.00
2019-06-01T04:03:16.264Z,49.20
2019-06-01T04:04:19.604Z,49.60
2019-06-01T04:05:22.986Z,49.60
2019-06-01T04:06:25.908Z,51.40
2019-06-01T04:07:28.472Z,52.80
2019-06-01T04:08:31.096Z,44.60
2019-06-01T04:09:32.891Z,49.00
2019-06-01T04:10:35.215Z,47.60
2019-06-01T04:11:38.090Z,48.80
2019-06-01T04:12:40.542Z,47.00
2019-06-01T04:13:43.287Z,51.20
2019-06-01T04:14:45.860Z,47.60
2019-06-01T04:15:49.315Z,52.00
2019-06-01T04:16:51.701Z,48.00
2019-06-01T04:17:54.258Z,48.00
2019-06-01T04:18:56.604Z,50.00
2019-06-01T04:19:58.983Z,40.20
2019-06-01T04:21:02.423Z,36.00
2019-06-01T04:22:10.136Z,44.60
2019-06-01T04:23:13.406Z,53.20
2019-06-01T04:24:15.972Z,51.60
2019-06-01T04:25:19.326Z,51.00
2019-06-01T04:26:22.423Z,47.40
2019-06-01T04:27:24.735Z,49.60
2019-06-01T04:28:27.919Z,50.40
2019-06-01T04:29:31.289Z,46.00
2019-06-01T04:30:34.094Z,42.00
2019-06-01T04:31:36.992Z,50.80
2019-06-01T04:32:49.271Z,51.20
2019-06-01T04:33:44.048Z,47.60
2019-06-01T04:34:46.341Z,50.80
2019-06-01T04:35:48.765Z,50.80
2019-06-01T04:36:50.479Z,45.80
2019-06-01T04:37:53.695Z,48.60
2019-06-01T04:38:57.699Z,50.80
2019-06-01T04:40:00.415Z,48.80
2019-06-01T04:41:03.573Z,41.40
2019-06-01T04:42:07.630Z,46.20
2019-06-01T04:43:10.265Z,47.40
2019-06-01T04:44:14.317Z,54.40
2019-06-01T04:45:17.295Z,47.80
2019-06-01T04:46:22.011Z,52.40
2019-06-01T04:47:26.511Z,54.80
2019-06-01T04:48:29.026Z,50.40
2019-06-01T04:49:33.052Z,47.00
2019-06-01T04:50:36.215Z,54.00
2019-06-01T04:51:38.011Z,57.00
2019-06-01T04:52:40.971Z,50.00
2019-06-01T04:53:44.231Z,53.20
2019-06-01T04:54:45.979Z,53.00
2019-06-01T04:55:50.018Z,51.80
2019-06-01T04:56:52.371Z,53.60
2019-06-01T04:57:54.781Z,50.60
2019-06-01T04:58:57.517Z,52.20
2019-06-01T05:00:00.164Z,52.20
2019-06-01T05:01:04.752Z,51.20
2019-06-01T05:02:07.586Z,51.40
2019-06-01T05:03:11.892Z,52.40
2019-06-01T05:04:15.425Z,49.80
2019-06-01T05:05:18.161Z,50.00
2019-06-01T05:06:20.098Z,43.00
2019-06-01T05:07:21.843Z,52.60
2019-06-01T05:08:25.661Z,44.40
2019-06-01T05:09:27.401Z,49.60
2019-06-01T05:10:30.092Z,49.20
2019-06-01T05:11:32.362Z,49.00
2019-06-01T05:12:35.366Z,50.00
2019-06-01T05:13:39.832Z,53.40
2019-06-01T05:14:44.777Z,52.20
2019-06-01T05:15:47.346Z,54.80
2019-06-01T05:16:50.167Z,51.00
2019-06-01T05:17:53.653Z,48.40
2019-06-01T05:18:56.482Z,51.60
2019-06-01T05:19:58.906Z,52.00
2019-06-01T05:21:01.370Z,51.80
2019-06-01T05:22:04.732Z,49.80
2019-06-01T05:23:08.462Z,51.40
2019-06-01T05:24:10.673Z,49.40
2019-06-01T05:25:15.380Z,47.40
2019-06-01T05:26:18.233Z,52.80
2019-06-01T05:27:21.382Z,49.60
2019-06-01T05:28:23.792Z,50.00
2019-06-01T05:29:27.032Z,48.40
2019-06-01T05:30:31.631Z,41.00
2019-06-01T05:31:35.014Z,49.60
2019-06-01T05:32:37.817Z,52.20
2019-06-01T05:33:41.011Z,46.40
2019-06-01T05:34:43.776Z,39.80
2019-06-01T05:35:48.526Z,49.40
2019-06-01T05:36:51.292Z,41.60
2019-06-01T05:37:54.287Z,44.60
2019-06-01T05:38:57.057Z,48.60
2019-06-01T05:39:59.362Z,52.40
2019-06-01T05:41:03.559Z,46.60
2019-06-01T05:42:06.336Z,44.40
2019-06-01T05:43:13.834Z,46.60
2019-06-01T05:44:14.950Z,45.20
2019-06-01T05:45:22.205Z,44.60
2019-06-01T05:46:24.779Z,42.60
2019-06-01T05:47:27.463Z,49.25
2019-06-01T05:48:30.857Z,45.00
2019-06-01T05:49:32.997Z,43.00
2019-06-01T05:50:35.759Z,42.40
2019-06-01T05:51:38.180Z,42.80
2019-06-01T05:52:41.865Z,48.60
2019-06-01T05:53:44.963Z,40.80
2019-06-01T05:54:48.092Z,37.40
2019-06-01T05:55:50.930Z,44.40
2019-06-01T05:56:53.515Z,35.60
2019-06-01T05:57:55.260Z,41.80
2019-06-01T05:58:58.273Z,45.40
2019-06-01T06:00:01.752Z,45.40
2019-06-01T06:01:04.021Z,41.40
2019-06-01T06:02:06.765Z,48.20
2019-06-01T06:03:12.801Z,41.60
2019-06-01T06:04:14.098Z,46.20
2019-06-01T06:05:17.299Z,48.40
2019-06-01T06:06:21.970Z,44.40
2019-06-01T06:07:27.237Z,45.00
2019-06-01T06:08:30.005Z,44.40
2019-06-01T06:09:32.011Z,42.60
2019-06-01T06:10:35.827Z,45.40
2019-06-01T06:11:38.429Z,43.60
2019-06-01T06:12:41.549Z,48.00
2019-06-01T06:13:46.148Z,43.80
2019-06-01T06:14:49.250Z,42.40
2019-06-01T06:15:53.339Z,47.40
2019-06-01T06:16:55.898Z,44.60
2019-06-01T06:17:58.906Z,40.60
2019-06-01T06:19:03.483Z,46.00
2019-06-01T06:20:07.124Z,44.40
2019-06-01T06:21:09.995Z,45.00
2019-06-01T06:22:12.067Z,39.40
2019-06-01T06:23:16.484Z,38.80
2019-06-01T06:24:18.540Z,39.80
2019-06-01T06:25:21.907Z,39.60
2019-06-01T06:26:25.220Z,35.00
2019-06-01T06:27:28.618Z,35.60
2019-06-01T06:28:30.469Z,33.40
2019-06-01T06:29:33.296Z,35.20
2019-06-01T06:30:36.339Z,37.20
2019-06-01T06:31:40.524Z,36.00
2019-06-01T06:32:43.713Z,40.00
2019-06-01T06:33:56.104Z,35.60
2019-06-01T06:34:51.799Z,38.00
2019-06-01T06:35:54.926Z,39.80
2019-06-01T06:36:57.129Z,29.60
2019-06-01T06:38:01.200Z,36.20
2019-06-01T06:39:06.285Z,39.80
2019-06-01T06:40:10.121Z,36.80
2019-06-01T06:41:13.997Z,37.40
2019-06-01T06:42:18.633Z,38.80
2019-06-01T06:43:29.483Z,36.40
2019-06-01T06:44:26.626Z,34.60
2019-06-01T06:45:28.885Z,38.00
2019-06-01T06:46:32.203Z,36.40
2019-06-01T06:47:36.338Z,35.00
2019-06-01T06:48:39.309Z,36.00
2019-06-01T06:49:42.220Z,36.40
2019-06-01T06:50:47.794Z,33.80
2019-06-01T06:51:51.396Z,29.80
2019-06-01T06:52:54.098Z,30.40
2019-06-01T06:53:57.159Z,33.80
2019-06-01T06:55:00.083Z,33.40
2019-06-01T06:56:04.343Z,36.60
2019-06-01T06:57:08.222Z,35.60
2019-06-01T06:58:14.197Z,33.80
2019-06-01T06:59:18.330Z,30.40
2019-06-01T07:00:22.681Z,25.40
2019-06-01T07:01:26.875Z,25.40
2019-06-01T07:02:30.055Z,24.00
2019-06-01T07:03:32.731Z,33.60
2019-06-01T07:04:35.388Z,36.20
2019-06-01T07:05:38.199Z,31.20
2019-06-01T07:06:41.646Z,32.00
2019-06-01T07:07:44.476Z,28.00
2019-06-01T07:08:48.860Z,24.40
2019-06-01T07:09:53.080Z,24.40
2019-06-01T07:10:55.839Z,23.80
2019-06-01T07:11:58.655Z,25.40
2019-06-01T07:13:01.960Z,22.00
2019-06-01T07:14:05.931Z,22.40
2019-06-01T07:15:09.109Z,20.40
2019-06-01T07:16:13.133Z,20.40
2019-06-01T07:17:16.619Z,18.20
2019-06-01T07:18:19.913Z,18.60
2019-06-01T07:19:23.663Z,22.20
2019-06-01T07:20:27.835Z,21.60
2019-06-01T07:21:32.002Z,20.60
2019-06-01T07:22:35.799Z,16.40
2019-06-01T07:23:41.729Z,29.60
2019-06-01T07:24:44.245Z,26.00
2019-06-01T07:25:49.117Z,20.40
2019-06-01T07:26:52.247Z,18.20
2019-06-01T07:27:54.971Z,25.60
2019-06-01T07:29:03.176Z,20.20
2019-06-01T07:30:08.067Z,23.40
2019-06-01T07:31:10.870Z,17.20
2019-06-01T07:32:14.352Z,15.20
2019-06-01T07:33:17.303Z,14.40
2019-06-01T07:34:30.921Z,16.00
2019-06-01T07:35:26.665Z,16.60
2019-06-01T07:36:29.519Z,18.80
2019-06-01T07:37:32.748Z,21.80
2019-06-01T07:38:35.733Z,18.00
2019-06-01T07:39:37.568Z,19.20
2019-06-01T07:40:40.863Z,16.20
2019-06-01T07:41:43.563Z,22.80
2019-06-01T07:42:46.780Z,19.80
2019-06-01T07:43:49.803Z,20.20
2019-06-01T07:44:52.284Z,18.20
2019-06-01T07:45:54.344Z,16.60
2019-06-01T07:46:57.223Z,18.00
2019-06-01T07:47:59.792Z,17.80
2019-06-01T07:49:03.061Z,14.80
2019-06-01T07:50:06.560Z,15.60
2019-06-01T07:51:09.634Z,16.20
2019-06-01T07:52:13.377Z,17.20
2019-06-01T07:53:16.988Z,26.00
2019-06-01T07:54:20.266Z,23.80
2019-06-01T07:55:23.529Z,26.80
2019-06-01T07:56:26.936Z,24.40
2019-06-01T07:57:31.793Z,20.00
2019-06-01T07:58:33.973Z,21.60
2019-06-01T07:59:38.923Z,20.20
2019-06-01T08:00:40.902Z,19.20
2019-06-01T08:01:46.578Z,17.20
2019-06-01T08:02:50.035Z,19.00
2019-06-01T08:03:52.953Z,19.20
2019-06-01T08:04:56.314Z,22.20
2019-06-01T08:05:59.268Z,16.20
2019-06-01T08:07:06.436Z,16.80
2019-06-01T08:08:10.035Z,20.40
2019-06-01T08:09:13.644Z,23.20
2019-06-01T08:10:16.237Z,18.80
2019-06-01T08:11:19.479Z,18.60
2019-06-01T08:12:23.387Z,21.40
2019-06-01T08:13:31.507Z,23.20
2019-06-01T08:14:32.764Z,18.40
2019-06-01T08:15:34.917Z,16.20
2019-06-01T08:16:39.389Z,21.60
2019-06-01T08:17:42.146Z,18.60
2019-06-01T08:18:43.850Z,16.80
2019-06-01T08:19:51.648Z,23.00
2019-06-01T08:20:52.185Z,25.20
2019-06-01T08:21:54.771Z,22.00
2019-06-01T08:22:59.638Z,25.40
2019-06-01T08:24:02.741Z,18.00
2019-06-01T08:25:06.953Z,18.60
2019-06-01T08:26:09.815Z,24.20
2019-06-01T08:27:13.044Z,24.40
2019-06-01T08:28:16.182Z,18.60
2019-06-01T08:29:22.613Z,21.00
2019-06-01T08:30:28.666Z,28.40
2019-06-01T08:31:38.039Z,29.00
2019-06-01T08:32:42.381Z,30.80
2019-06-01T08:33:46.434Z,33.20
2019-06-01T08:35:04.823Z,31.00
2019-06-01T08:35:54.908Z,35.00
2019-06-01T08:36:58.178Z,28.20
2019-06-01T08:38:03.158Z,21.80
2019-06-01T08:39:08.134Z,23.40
2019-06-01T08:40:10.705Z,26.60
2019-06-01T08:41:15.305Z,27.00
2019-06-01T08:42:18.725Z,23.80
2019-06-01T08:43:23.538Z,21.00
2019-06-01T08:44:27.759Z,23.80
2019-06-01T08:45:35.357Z,24.40
2019-06-01T08:46:35.602Z,26.60
2019-06-01T08:47:39.937Z,25.00
2019-06-01T08:48:41.860Z,22.20
2019-06-01T08:49:45.112Z,19.60
2019-06-01T08:50:48.474Z,18.20
2019-06-01T08:51:51.866Z,21.00
2019-06-01T08:52:54.607Z,17.80
2019-06-01T08:54:00.930Z,17.40
2019-06-01T08:55:06.035Z,18.00
2019-06-01T08:56:09.147Z,19.80
2019-06-01T08:57:13.589Z,18.20
2019-06-01T08:58:15.466Z,25.80
2019-06-01T08:59:20.296Z,17.00
2019-06-01T09:00:24.354Z,25.80
2019-06-01T09:01:29.104Z,25.20
2019-06-01T09:02:32.818Z,20.60
2019-06-01T09:03:45.482Z,21.20
2019-06-01T09:04:42.135Z,22.20
2019-06-01T09:05:45.585Z,17.40
2019-06-01T09:06:47.914Z,19.00
2019-06-01T09:07:50.595Z,16.00
2019-06-01T09:08:53.746Z,21.80
2019-06-01T09:09:58.213Z,17.20
2019-06-01T09:11:03.388Z,17.20
2019-06-01T09:12:09.495Z,16.20
2019-06-01T09:13:11.709Z,18.40
2019-06-01T09:14:14.819Z,18.80
2019-06-01T09:15:18.745Z,17.00
2019-06-01T09:16:25.499Z,13.20
2019-06-01T09:17:31.542Z,13.20
2019-06-01T09:18:33.741Z,18.40
2019-06-01T09:19:37.912Z,16.80
2019-06-01T09:20:43.274Z,16.60
2019-06-01T09:21:46.299Z,16.80
2019-06-01T09:22:51.674Z,14.40
2019-06-01T09:23:57.091Z,17.20
2019-06-01T09:25:00.456Z,16.40
2019-06-01T09:26:03.781Z,17.20
2019-06-01T09:27:06.780Z,17.60
2019-06-01T09:28:09.959Z,13.20
2019-06-01T09:29:12.922Z,13.00
2019-06-01T09:30:16.639Z,12.80
2019-06-01T09:31:19.627Z,14.00
2019-06-01T09:32:22.821Z,14.40
2019-06-01T09:33:26.107Z,16.60
2019-06-01T09:34:28.502Z,17.60
2019-06-01T09:35:48.647Z,16.20
2019-06-01T09:36:36.818Z,15.80
2019-06-01T09:37:40.477Z,19.60
2019-06-01T09:38:43.389Z,18.20
2019-06-01T09:39:45.571Z,15.80
2019-06-01T09:40:48.952Z,13.40
2019-06-01T09:41:52.129Z,17.00
2019-06-01T09:42:54.827Z,13.80
2019-06-01T09:43:57.709Z,16.00
2019-06-01T09:45:01.423Z,13.20
2019-06-01T09:46:03.770Z,15.00
2019-06-01T09:47:06.896Z,18.40
2019-06-01T09:48:09.796Z,17.00
2019-06-01T09:49:11.903Z,18.40
2019-06-01T09:50:14.925Z,16.00
2019-06-01T09:51:18.395Z,16.40
2019-06-01T09:52:22.042Z,13.00
2019-06-01T09:53:25.091Z,15.80
2019-06-01T09:54:29.453Z,15.40
2019-06-01T09:55:34.424Z,12.00
2019-06-01T09:56:39.821Z,13.20
2019-06-01T09:57:42.590Z,15.20
2019-06-01T09:58:45.482Z,16.20
2019-06-01T09:59:48.894Z,15.60
2019-06-01T10:00:51.038Z,13.60
2019-06-01T10:01:56.681Z,12.60
2019-06-01T10:02:59.512Z,16.20
2019-06-01T10:04:02.540Z,13.80
2019-06-01T10:05:07.615Z,12.40
2019-06-01T10:06:13.849Z,13.80
2019-06-01T10:07:15.733Z,15.20
2019-06-01T10:08:18.507Z,17.00
2019-06-01T10:09:20.399Z,14.40
2019-06-01T10:10:23.425Z,19.80
2019-06-01T10:11:26.297Z,15.60
2019-06-01T10:12:28.223Z,17.00
2019-06-01T10:13:30.582Z,13.00
2019-06-01T10:14:34.163Z,13.20
2019-06-01T10:15:39.522Z,14.00
2019-06-01T10:16:43.140Z,14.00
2019-06-01T10:17:46.895Z,14.20
2019-06-01T10:18:51.542Z,12.80
2019-06-01T10:19:55.275Z,15.20
2019-06-01T10:20:58.121Z,14.00
2019-06-01T10:22:00.807Z,14.60
2019-06-01T10:23:05.715Z,14.40
2019-06-01T10:24:08.155Z,14.60
2019-06-01T10:25:10.891Z,12.60
2019-06-01T10:26:14.158Z,14.20
2019-06-01T10:27:16.625Z,14.80
2019-06-01T10:28:18.767Z,17.00
2019-06-01T10:29:21.987Z,15.60
2019-06-01T10:30:25.258Z,14.00
2019-06-01T10:31:27.686Z,19.20
2019-06-01T10:32:32.363Z,18.00
2019-06-01T10:33:34.815Z,15.80
2019-06-01T10:34:39.848Z,18.80
2019-06-01T10:35:43.173Z,17.40
2019-06-01T10:36:46.150Z,13.60
2019-06-01T10:37:49.031Z,16.40
2019-06-01T10:38:51.971Z,18.40
2019-06-01T10:39:55.223Z,16.80
2019-06-01T10:40:57.557Z,17.40
2019-06-01T10:42:00.523Z,12.20
2019-06-01T10:43:03.570Z,15.20
2019-06-01T10:44:06.401Z,18.00
2019-06-01T10:45:10.995Z,17.60
2019-06-01T10:46:14.140Z,13.20
2019-06-01T10:47:17.550Z,16.20
2019-06-01T10:48:20.931Z,16.00
2019-06-01T10:49:24.016Z,16.40
2019-06-01T10:50:32.809Z,15.20
2019-06-01T10:51:34.189Z,16.40
2019-06-01T10:52:38.380Z,14.00
2019-06-01T10:53:43.893Z,15.60
2019-06-01T10:54:49.030Z,15.00
2019-06-01T10:55:52.132Z,15.60
2019-06-01T10:56:56.493Z,13.40
2019-06-01T10:57:59.597Z,13.00
2019-06-01T10:59:03.689Z,12.60
2019-06-01T11:00:08.557Z,16.20
2019-06-01T11:01:10.634Z,17.60
2019-06-01T11:02:18.281Z,13.40
2019-06-01T11:03:20.755Z,17.20
2019-06-01T11:04:24.589Z,17.00
2019-06-01T11:05:29.528Z,14.40
2019-06-01T11:06:40.191Z,15.00
2019-06-01T11:07:37.434Z,15.20
2019-06-01T11:08:41.071Z,15.20
2019-06-01T11:09:43.316Z,16.20
2019-06-01T11:10:46.297Z,15.20
2019-06-01T11:11:49.283Z,15.00
2019-06-01T11:12:51.518Z,15.80
2019-06-01T11:13:56.263Z,15.00
2019-06-01T11:14:59.052Z,13.40
2019-06-01T11:16:01.799Z,16.00
2019-06-01T11:17:05.979Z,16.60
2019-06-01T11:18:09.314Z,16.20
2019-06-01T11:19:11.016Z,17.80
2019-06-01T11:20:17.668Z,17.40
2019-06-01T11:21:22.149Z,17.60
2019-06-01T11:22:25.513Z,16.20
2019-06-01T11:23:28.391Z,18.00
2019-06-01T11:24:30.298Z,12.20
2019-06-01T11:25:33.467Z,14.00
2019-06-01T11:26:37.979Z,12.80
2019-06-01T11:27:39.928Z,12.80
2019-06-01T11:28:45.338Z,19.00
2019-06-01T11:29:51.543Z,11.40
2019-06-01T11:30:52.133Z,13.40
2019-06-01T11:31:55.691Z,12.60
2019-06-01T11:32:58.579Z,13.20
2019-06-01T11:34:01.489Z,13.00
2019-06-01T11:35:06.357Z,13.20
2019-06-01T11:36:09.943Z,13.00
2019-06-01T11:37:15.489Z,14.80
2019-06-01T11:38:18.377Z,15.40
2019-06-01T11:39:20.449Z,12.20
2019-06-01T11:40:23.961Z,15.20
2019-06-01T11:41:27.361Z,11.80
2019-06-01T11:42:30.512Z,14.00
2019-06-01T11:43:35.125Z,14.20
2019-06-01T11:44:38.969Z,17.20
2019-06-01T11:45:41.378Z,14.60
2019-06-01T11:46:45.495Z,14.40
2019-06-01T11:47:48.893Z,11.60
2019-06-01T11:48:52.063Z,14.20
2019-06-01T11:49:57.237Z,12.80
2019-06-01T11:51:01.164Z,12.00
2019-06-01T11:52:05.739Z,15.00
2019-06-01T11:53:08.425Z,12.80
2019-06-01T11:54:10.696Z,12.80
2019-06-01T11:55:12.833Z,17.60
2019-06-01T11:56:15.121Z,12.80
2019-06-01T11:57:17.994Z,17.40
2019-06-01T11:58:20.530Z,15.40
2019-06-01T11:59:23.619Z,16.00
2019-06-01T12:00:26.940Z,15.60
2019-06-01T12:01:30.330Z,15.60
2019-06-01T12:02:33.717Z,14.00
2019-06-01T12:03:35.557Z,14.40
2019-06-01T12:04:37.912Z,13.00
2019-06-01T12:05:42.008Z,15.00
2019-06-01T12:06:46.300Z,14.20
2019-06-01T12:07:50.907Z,15.00
2019-06-01T12:08:54.280Z,12.40
2019-06-01T12:09:57.374Z,11.00
2019-06-01T12:11:02.578Z,12.20
2019-06-01T12:12:05.407Z,13.60
2019-06-01T12:13:07.218Z,12.60
2019-06-01T12:14:09.686Z,14.60
2019-06-01T12:15:15.466Z,16.00
2019-06-01T12:16:17.224Z,14.60
2019-06-01T12:17:21.346Z,11.00
2019-06-01T12:18:23.659Z,12.00
2019-06-01T12:19:26.808Z,15.80
2019-06-01T12:20:33.658Z,14.00
2019-06-01T12:21:37.077Z,13.40
2019-06-01T12:22:40.844Z,13.80
2019-06-01T12:23:43.636Z,10.20
2019-06-01T12:24:47.407Z,12.80
2019-06-01T12:25:50.296Z,16.20
2019-06-01T12:26:52.824Z,11.40
2019-06-01T12:27:56.106Z,11.60
2019-06-01T12:29:00.188Z,12.20
2019-06-01T12:30:06.865Z,13.80
2019-06-01T12:31:09.239Z,12.40
2019-06-01T12:32:13.737Z,12.20
2019-06-01T12:33:16.785Z,12.80
2019-06-01T12:34:19.212Z,13.00
2019-06-01T12:35:22.423Z,14.00
2019-06-01T12:36:25.057Z,11.60
2019-06-01T12:37:45.433Z,15.60
2019-06-01T12:38:34.463Z,15.00
2019-06-01T12:39:38.247Z,11.80
2019-06-01T12:40:41.121Z,16.60
2019-06-01T12:41:45.664Z,16.00
2019-06-01T12:42:48.233Z,15.20
2019-06-01T12:44:09.218Z,15.60
2019-06-01T12:45:17.010Z,15.00
2019-06-01T12:46:19.811Z,11.40
2019-06-01T12:47:22.820Z,15.40
2019-06-01T12:48:26.599Z,16.60
2019-06-01T12:49:29.219Z,16.80
2019-06-01T12:50:32.083Z,22.60
2019-06-01T12:51:34.988Z,18.00
2019-06-01T12:52:37.560Z,15.80
2019-06-01T12:53:40.370Z,16.80
2019-06-01T12:54:44.671Z,12.80
2019-06-01T12:55:47.329Z,18.80
2019-06-01T12:56:49.933Z,18.40
2019-06-01T12:57:51.735Z,17.00
2019-06-01T12:58:54.501Z,15.80
2019-06-01T12:59:57.022Z,13.40
2019-06-01T13:01:02.705Z,15.80
2019-06-01T13:02:05.894Z,13.20
2019-06-01T13:03:09.782Z,13.00
2019-06-01T13:04:12.208Z,15.20
2019-06-01T13:05:15.494Z,15.00
2019-06-01T13:06:18.171Z,15.80
2019-06-01T13:07:20.146Z,18.00
2019-06-01T13:08:23.256Z,15.40
2019-06-01T13:09:25.638Z,16.80
2019-06-01T13:10:30.800Z,15.80
2019-06-01T13:11:33.407Z,13.40
2019-06-01T13:12:35.644Z,14.00
2019-06-01T13:13:41.175Z,15.20
2019-06-01T13:14:43.534Z,14.60
2019-06-01T13:15:47.700Z,16.40
2019-06-01T13:17:05.918Z,20.20
2019-06-01T13:17:54.605Z,16.40
2019-06-01T13:18:58.298Z,17.60
2019-06-01T13:20:01.368Z,19.60
2019-06-01T13:21:04.326Z,17.80
2019-06-01T13:22:06.590Z,15.80
2019-06-01T13:23:08.975Z,20.40
2019-06-01T13:24:11.318Z,15.00
2019-06-01T13:25:16.797Z,15.40
2019-06-01T13:26:19.353Z,17.20
2019-06-01T13:27:22.637Z,13.00
2019-06-01T13:28:37.622Z,14.80
2019-06-01T13:29:29.321Z,15.40
2019-06-01T13:30:32.034Z,14.00
2019-06-01T13:31:35.029Z,13.80
2019-06-01T13:32:38.031Z,16.40
2019-06-01T13:33:40.524Z,13.00
2019-06-01T13:34:43.047Z,15.80
2019-06-01T13:35:46.579Z,14.40
2019-06-01T13:36:49.178Z,13.40
2019-06-01T13:38:10.776Z,15.00